Kezdőlap
METAR-TAF:

METAR-TAF

Repülőterek :

Sinop, Törökország

földrajzi szélesség: 42-00-57N, földrajzi hosszúság: 035-03-59E, magasság: 7 m

Jelenlegi meteorológiai megfigyelések

A jelentés 33 perccel ezelõtt készült, 05:50 UTC
Szélcsend
Hőmérséklet 15°C
Páratartalom 88%
Légköri nyomás 1019 hPa
Látótávolság: 7000 m
Kevés felhő 1500 lábon
Szakadozott felhőzet 2800 lábon
Szakadozott felhőzet 8000 lábon

METAR: LTCM 230550Z 00000KT 7000 FEW015 BKN028 BKN080 15/13 Q1019

Idő: 09:23 (06:23 UTC)

Előrejelzés

A jelentés 1 órával és 43 perccel ezelõtt készült, 04:40 UTC
Az előrejelzés 23-én 06 óra UTC és 23-én 15 óra UTC között érvényes
Különbözõ irányokból fújó szél 2 kt
Látótávolság 10 km, vagy több
Kevés felhő 1500 lábon
Szórványos felhőzet 3000 lábon
Szakadozott felhőzet 20000 lábon

TAF: LTCM 230440Z 2306/2315 VRB02KT 9999 FEW015 SCT030 BKN200

Meteorológiai megfigyelések és előrejelzések több, mint 4000 repülőtéren (METAR és TAF jelentéseket).

A térképen piros és sárga pontok jelzik az elérhető meteorológiai állomásokat.

Mozgassa az egeret a pont fölött, hogy megjelenjen az állomás neve.

Azután kattintson az időjárási megfigyelések és előrejelzések megtekintéséhez.

A térkép megváltoztatása: kattintson a fekete keresztel jelölt zöld gombra ráközelítéshez, a vonallal jelölt zöld gombra távolításhoz, vagy a zöld nyilakra a szomszédos térképek eléréséhez.


METAR-TAF: